sensor_id;sensor_type;location;lat;lon;timestamp;temperature;humidity
18317;DHT22;9284;52.298;21.164;2022-09-17T03:15:29;8.60;99.90
18317;DHT22;9284;52.298;21.164;2022-09-17T03:17:58;8.50;99.90
18317;DHT22;9284;52.298;21.164;2022-09-17T03:20:26;8.50;99.90
18317;DHT22;9284;52.298;21.164;2022-09-17T03:22:54;8.40;99.90
18317;DHT22;9284;52.298;21.164;2022-09-17T03:25:22;8.40;1.00
18317;DHT22;9284;52.298;21.164;2022-09-17T03:27:50;8.30;1.00
18317;DHT22;9284;52.298;21.164;2022-09-17T03:30:19;8.30;1.00
18317;DHT22;9284;52.298;21.164;2022-09-17T03:32:48;8.20;1.00
18317;DHT22;9284;52.298;21.164;2022-09-17T03:35:16;8.20;1.00
18317;DHT22;9284;52.298;21.164;2022-09-17T03:37:45;8.10;1.00
18317;DHT22;9284;52.298;21.164;2022-09-17T03:40:14;8.10;1.00
18317;DHT22;9284;52.298;21.164;2022-09-17T03:42:42;8.10;1.00
18317;DHT22;9284;52.298;21.164;2022-09-17T03:45:10;8.00;1.00
18317;DHT22;9284;52.298;21.164;2022-09-17T03:47:39;7.90;1.00
18317;DHT22;9284;52.298;21.164;2022-09-17T03:50:08;7.90;1.00
18317;DHT22;9284;52.298;21.164;2022-09-17T03:52:37;7.80;1.00
18317;DHT22;9284;52.298;21.164;2022-09-17T03:55:06;7.80;1.00
18317;DHT22;9284;52.298;21.164;2022-09-17T03:57:34;7.80;1.00
18317;DHT22;9284;52.298;21.164;2022-09-17T04:00:03;7.70;1.00
18317;DHT22;9284;52.298;21.164;2022-09-17T04:02:37;7.60;1.00
18317;DHT22;9284;52.298;21.164;2022-09-17T04:05:08;7.60;1.00
18317;DHT22;9284;52.298;21.164;2022-09-17T04:07:37;7.60;1.00
18317;DHT22;9284;52.298;21.164;2022-09-17T04:10:06;7.70;1.00
18317;DHT22;9284;52.298;21.164;2022-09-17T04:12:34;7.50;1.00
18317;DHT22;9284;52.298;21.164;2022-09-17T04:15:03;7.50;1.00
18317;DHT22;9284;52.298;21.164;2022-09-17T04:17:31;7.50;36.50
18317;DHT22;9284;52.298;21.164;2022-09-17T04:20:00;7.60;19.20
18317;DHT22;9284;52.298;21.164;2022-09-17T04:22:29;7.40;28.00
18317;DHT22;9284;52.298;21.164;2022-09-17T04:24:57;7.40;47.50
18317;DHT22;9284;52.298;21.164;2022-09-17T04:27:26;7.40;77.10
18317;DHT22;9284;52.298;21.164;2022-09-17T04:29:54;7.40;95.30
18317;DHT22;9284;52.298;21.164;2022-09-17T04:32:22;7.40;98.70
18317;DHT22;9284;52.298;21.164;2022-09-17T04:34:50;7.40;99.30
18317;DHT22;9284;52.298;21.164;2022-09-17T04:37:18;7.40;96.00
18317;DHT22;9284;52.298;21.164;2022-09-17T04:39:49;7.30;99.90
18317;DHT22;9284;52.298;21.164;2022-09-17T04:42:17;7.30;99.90
18317;DHT22;9284;52.298;21.164;2022-09-17T04:44:45;7.30;99.90
18317;DHT22;9284;52.298;21.164;2022-09-17T04:47:13;7.30;99.90
18317;DHT22;9284;52.298;21.164;2022-09-17T04:49:41;7.40;99.90
18317;DHT22;9284;52.298;21.164;2022-09-17T04:52:09;7.30;99.90
18317;DHT22;9284;52.298;21.164;2022-09-17T04:54:37;7.30;99.90
18317;DHT22;9284;52.298;21.164;2022-09-17T04:57:07;7.40;99.90
18317;DHT22;9284;52.298;21.164;2022-09-17T04:59:35;7.40;99.90
18317;DHT22;9284;52.298;21.164;2022-09-17T05:02:03;7.40;99.90
18317;DHT22;9284;52.298;21.164;2022-09-17T05:04:32;7.40;99.90
18317;DHT22;9284;52.298;21.164;2022-09-17T05:07:00;7.40;99.90
18317;DHT22;9284;52.298;21.164;2022-09-17T05:09:28;7.40;99.90
18317;DHT22;9284;52.298;21.164;2022-09-17T05:11:56;7.50;99.90
18317;DHT22;9284;52.298;21.164;2022-09-17T05:14:26;7.50;99.90
18317;DHT22;9284;52.298;21.164;2022-09-17T05:16:54;7.50;99.90
18317;DHT22;9284;52.298;21.164;2022-09-17T05:19:22;7.50;99.90
18317;DHT22;9284;52.298;21.164;2022-09-17T05:21:50;7.60;99.90
18317;DHT22;9284;52.298;21.164;2022-09-17T05:24:18;7.60;99.90
18317;DHT22;9284;52.298;21.164;2022-09-17T05:26:46;7.70;99.90
18317;DHT22;9284;52.298;21.164;2022-09-17T05:29:14;7.80;99.90
18317;DHT22;9284;52.298;21.164;2022-09-17T05:31:44;7.90;65.50
18317;DHT22;9284;52.298;21.164;2022-09-17T05:34:12;8.00;19.90
18317;DHT22;9284;52.298;21.164;2022-09-17T05:36:40;8.20;99.90
18317;DHT22;9284;52.298;21.164;2022-09-17T05:39:09;8.30;1.00
18317;DHT22;9284;52.298;21.164;2022-09-17T05:41:38;8.50;1.00
18317;DHT22;9284;52.298;21.164;2022-09-17T05:44:06;8.70;1.00
18317;DHT22;9284;52.298;21.164;2022-09-17T05:46:34;8.90;1.00
18317;DHT22;9284;52.298;21.164;2022-09-17T05:49:04;9.20;99.90
18317;DHT22;9284;52.298;21.164;2022-09-17T05:51:32;9.40;1.00
18317;DHT22;9284;52.298;21.164;2022-09-17T05:54:00;9.70;1.00
18317;DHT22;9284;52.298;21.164;2022-09-17T05:56:29;10.00;99.90
18317;DHT22;9284;52.298;21.164;2022-09-17T05:58:58;10.30;74.10
18317;DHT22;9284;52.298;21.164;2022-09-17T06:01:27;10.60;1.00
18317;DHT22;9284;52.298;21.164;2022-09-17T06:03:55;11.00;99.90
18317;DHT22;9284;52.298;21.164;2022-09-17T06:06:27;11.60;1.00
18317;DHT22;9284;52.298;21.164;2022-09-17T06:08:58;12.00;1.00
18317;DHT22;9284;52.298;21.164;2022-09-17T06:11:26;12.80;99.90
18317;DHT22;9284;52.298;21.164;2022-09-17T06:13:54;13.60;99.90
18317;DHT22;9284;52.298;21.164;2022-09-17T06:16:23;14.10;93.20
18317;DHT22;9284;52.298;21.164;2022-09-17T06:18:52;14.50;99.90
18317;DHT22;9284;52.298;21.164;2022-09-17T06:21:21;15.10;99.90
18317;DHT22;9284;52.298;21.164;2022-09-17T06:23:50;15.30;1.00
18317;DHT22;9284;52.298;21.164;2022-09-17T06:26:19;15.90;99.90
18317;DHT22;9284;52.298;21.164;2022-09-17T06:28:47;16.10;99.90
18317;DHT22;9284;52.298;21.164;2022-09-17T06:31:15;16.30;1.00
18317;DHT22;9284;52.298;21.164;2022-09-17T06:33:43;16.60;1.00
18317;DHT22;9284;52.298;21.164;2022-09-17T06:36:14;16.90;1.00
18317;DHT22;9284;52.298;21.164;2022-09-17T06:38:42;16.90;99.90
18317;DHT22;9284;52.298;21.164;2022-09-17T06:41:12;17.00;99.90
18317;DHT22;9284;52.298;21.164;2022-09-17T06:43:42;17.00;99.90
18317;DHT22;9284;52.298;21.164;2022-09-17T06:46:11;17.30;99.90
18317;DHT22;9284;52.298;21.164;2022-09-17T06:48:39;17.90;99.90
18317;DHT22;9284;52.298;21.164;2022-09-17T06:51:09;17.60;99.90
18317;DHT22;9284;52.298;21.164;2022-09-17T06:53:38;17.80;99.90
18317;DHT22;9284;52.298;21.164;2022-09-17T06:56:07;17.80;99.90
18317;DHT22;9284;52.298;21.164;2022-09-17T06:58:37;17.90;99.90
18317;DHT22;9284;52.298;21.164;2022-09-17T07:01:09;17.90;99.90
18317;DHT22;9284;52.298;21.164;2022-09-17T07:03:37;17.30;99.90
18317;DHT22;9284;52.298;21.164;2022-09-17T07:06:09;17.60;99.90
18317;DHT22;9284;52.298;21.164;2022-09-17T07:08:39;17.70;99.90
18317;DHT22;9284;52.298;21.164;2022-09-17T07:11:07;17.00;99.90
18317;DHT22;9284;52.298;21.164;2022-09-17T07:13:36;15.70;1.00
18317;DHT22;9284;52.298;21.164;2022-09-17T07:16:06;15.20;99.90
18317;DHT22;9284;52.298;21.164;2022-09-17T07:18:34;15.10;1.00
18317;DHT22;9284;52.298;21.164;2022-09-17T07:21:04;15.10;1.00
18317;DHT22;9284;52.298;21.164;2022-09-17T07:23:33;15.00;99.90
18317;DHT22;9284;52.298;21.164;2022-09-17T07:26:04;14.60;99.90
18317;DHT22;9284;52.298;21.164;2022-09-17T07:28:33;14.50;1.00
18317;DHT22;9284;52.298;21.164;2022-09-17T07:31:04;14.40;99.90
18317;DHT22;9284;52.298;21.164;2022-09-17T07:33:33;14.10;1.00
18317;DHT22;9284;52.298;21.164;2022-09-17T07:36:04;13.80;99.90
18317;DHT22;9284;52.298;21.164;2022-09-17T07:38:33;13.60;6.30
18317;DHT22;9284;52.298;21.164;2022-09-17T07:41:02;13.30;99.90
18317;DHT22;9284;52.298;21.164;2022-09-17T07:43:33;13.10;99.90
18317;DHT22;9284;52.298;21.164;2022-09-17T07:46:03;13.00;99.90
18317;DHT22;9284;52.298;21.164;2022-09-17T07:48:32;13.00;1.00
18317;DHT22;9284;52.298;21.164;2022-09-17T07:51:00;12.90;1.00
18317;DHT22;9284;52.298;21.164;2022-09-17T07:53:28;12.80;1.00
18317;DHT22;9284;52.298;21.164;2022-09-17T07:55:58;12.70;1.00
18317;DHT22;9284;52.298;21.164;2022-09-17T07:58:29;12.60;99.90
18317;DHT22;9284;52.298;21.164;2022-09-17T08:01:01;12.40;99.90
18317;DHT22;9284;52.298;21.164;2022-09-17T08:03:30;12.40;1.00
18317;DHT22;9284;52.298;21.164;2022-09-17T08:06:02;12.40;1.00
18317;DHT22;9284;52.298;21.164;2022-09-17T08:08:32;12.40;1.00
18317;DHT22;9284;52.298;21.164;2022-09-17T08:11:02;12.40;3.00
18317;DHT22;9284;52.298;21.164;2022-09-17T08:13:31;12.20;33.20
18317;DHT22;9284;52.298;21.164;2022-09-17T08:16:00;12.40;7.80
18317;DHT22;9284;52.298;21.164;2022-09-17T08:18:30;12.40;99.90
18317;DHT22;9284;52.298;21.164;2022-09-17T08:20:59;12.50;99.90
18317;DHT22;9284;52.298;21.164;2022-09-17T08:23:28;12.50;49.40
18317;DHT22;9284;52.298;21.164;2022-09-17T08:25:58;12.40;99.90
18317;DHT22;9284;52.298;21.164;2022-09-17T08:28:28;12.40;99.90
18317;DHT22;9284;52.298;21.164;2022-09-17T08:31:00;12.30;1.00
18317;DHT22;9284;52.298;21.164;2022-09-17T08:33:32;12.20;1.00
18317;DHT22;9284;52.298;21.164;2022-09-17T08:36:01;12.10;1.00
18317;DHT22;9284;52.298;21.164;2022-09-17T08:38:30;12.10;99.90
18317;DHT22;9284;52.298;21.164;2022-09-17T08:41:14;12.20;99.90
18317;DHT22;9284;52.298;21.164;2022-09-17T08:43:51;12.30;29.40
18317;DHT22;9284;52.298;21.164;2022-09-17T08:46:23;12.40;1.00
18317;DHT22;9284;52.298;21.164;2022-09-17T08:49:01;12.40;99.90
18317;DHT22;9284;52.298;21.164;2022-09-17T08:51:45;12.50;99.90
18317;DHT22;9284;52.298;21.164;2022-09-17T08:54:21;12.60;99.90
18317;DHT22;9284;52.298;21.164;2022-09-17T08:57:12;12.70;1.00
18317;DHT22;9284;52.298;21.164;2022-09-17T08:59:49;12.80;1.00
18317;DHT22;9284;52.298;21.164;2022-09-17T09:02:28;12.80;99.90
18317;DHT22;9284;52.298;21.164;2022-09-17T09:05:07;12.90;1.00
18317;DHT22;9284;52.298;21.164;2022-09-17T09:07:42;13.00;99.90
18317;DHT22;9284;52.298;21.164;2022-09-17T09:10:16;13.20;99.90
18317;DHT22;9284;52.298;21.164;2022-09-17T09:12:48;13.40;1.00
18317;DHT22;9284;52.298;21.164;2022-09-17T09:15:26;13.70;99.90
18317;DHT22;9284;52.298;21.164;2022-09-17T09:17:57;13.80;74.10
18317;DHT22;9284;52.298;21.164;2022-09-17T09:20:38;14.20;1.00
18317;DHT22;9284;52.298;21.164;2022-09-17T09:23:14;14.20;1.00
18317;DHT22;9284;52.298;21.164;2022-09-17T09:25:52;14.40;99.90
18317;DHT22;9284;52.298;21.164;2022-09-17T09:28:34;14.30;1.00
18317;DHT22;9284;52.298;21.164;2022-09-17T09:31:15;14.20;1.00
18317;DHT22;9284;52.298;21.164;2022-09-17T09:33:46;13.90;34.70
18317;DHT22;9284;52.298;21.164;2022-09-17T09:36:17;14.00;99.90
18317;DHT22;9284;52.298;21.164;2022-09-17T09:38:52;13.90;1.00
18317;DHT22;9284;52.298;21.164;2022-09-17T09:41:27;13.80;1.00
18317;DHT22;9284;52.298;21.164;2022-09-17T09:44:00;13.90;1.00
18317;DHT22;9284;52.298;21.164;2022-09-17T09:49:39;13.60;1.00
18317;DHT22;9284;52.298;21.164;2022-09-17T09:52:22;13.70;99.90
18317;DHT22;9284;52.298;21.164;2022-09-17T09:55:04;13.60;1.00
18317;DHT22;9284;52.298;21.164;2022-09-17T09:57:38;13.50;99.90
18317;DHT22;9284;52.298;21.164;2022-09-17T10:00:28;13.60;1.00
18317;DHT22;9284;52.298;21.164;2022-09-17T10:03:01;13.50;1.00
18317;DHT22;9284;52.298;21.164;2022-09-17T10:05:31;13.50;99.90
18317;DHT22;9284;52.298;21.164;2022-09-17T10:08:10;13.30;99.90
18317;DHT22;9284;52.298;21.164;2022-09-17T10:10:53;13.40;1.00
18317;DHT22;9284;52.298;21.164;2022-09-17T10:13:22;13.30;1.00
18317;DHT22;9284;52.298;21.164;2022-09-17T10:15:50;13.30;1.00
18317;DHT22;9284;52.298;21.164;2022-09-17T10:18:20;13.30;19.20
18317;DHT22;9284;52.298;21.164;2022-09-17T10:20:57;13.20;99.90
18317;DHT22;9284;52.298;21.164;2022-09-17T10:23:29;13.00;99.90
18317;DHT22;9284;52.298;21.164;2022-09-17T10:25:59;12.80;1.00
18317;DHT22;9284;52.298;21.164;2022-09-17T10:28:31;12.70;99.90
18317;DHT22;9284;52.298;21.164;2022-09-17T10:31:02;12.60;1.00
18317;DHT22;9284;52.298;21.164;2022-09-17T10:33:38;12.70;1.00
18317;DHT22;9284;52.298;21.164;2022-09-17T10:36:11;12.90;1.00
18317;DHT22;9284;52.298;21.164;2022-09-17T10:38:44;13.10;99.90
18317;DHT22;9284;52.298;21.164;2022-09-17T10:41:15;13.20;99.90
18317;DHT22;9284;52.298;21.164;2022-09-17T10:43:44;13.30;1.00
18317;DHT22;9284;52.298;21.164;2022-09-17T10:46:15;13.30;99.90
18317;DHT22;9284;52.298;21.164;2022-09-17T10:48:57;13.60;99.90
18317;DHT22;9284;52.298;21.164;2022-09-17T10:51:33;13.70;54.40
18317;DHT22;9284;52.298;21.164;2022-09-17T10:57:06;13.80;99.90
18317;DHT22;9284;52.298;21.164;2022-09-17T10:59:59;13.80;1.00
18317;DHT22;9284;52.298;21.164;2022-09-17T11:06:09;14.20;99.90
18317;DHT22;9284;52.298;21.164;2022-09-17T11:08:48;14.30;99.90
18317;DHT22;9284;52.298;21.164;2022-09-17T11:11:31;14.40;1.00
18317;DHT22;9284;52.298;21.164;2022-09-17T11:14:15;14.50;99.90
18317;DHT22;9284;52.298;21.164;2022-09-17T11:16:52;14.10;8.90
18317;DHT22;9284;52.298;21.164;2022-09-17T11:19:31;14.10;1.00
18317;DHT22;9284;52.298;21.164;2022-09-17T11:22:10;14.00;1.00
18317;DHT22;9284;52.298;21.164;2022-09-17T11:25:03;14.10;1.00
18317;DHT22;9284;52.298;21.164;2022-09-17T11:27:41;14.10;1.00
18317;DHT22;9284;52.298;21.164;2022-09-17T11:30:16;14.10;1.00
18317;DHT22;9284;52.298;21.164;2022-09-17T11:35:56;14.10;99.90
18317;DHT22;9284;52.298;21.164;2022-09-17T11:38:29;14.10;1.00
18317;DHT22;9284;52.298;21.164;2022-09-17T11:41:03;14.10;99.90
18317;DHT22;9284;52.298;21.164;2022-09-17T11:43:34;14.20;1.00
18317;DHT22;9284;52.298;21.164;2022-09-17T11:46:07;14.30;5.50
18317;DHT22;9284;52.298;21.164;2022-09-17T11:48:41;14.30;99.90
18317;DHT22;9284;52.298;21.164;2022-09-17T11:51:23;14.40;99.90
18317;DHT22;9284;52.298;21.164;2022-09-17T11:53:59;14.60;1.00
18317;DHT22;9284;52.298;21.164;2022-09-17T11:56:35;15.10;1.00
18317;DHT22;9284;52.298;21.164;2022-09-17T11:59:13;15.80;99.90
18317;DHT22;9284;52.298;21.164;2022-09-17T12:01:49;16.20;1.00
18317;DHT22;9284;52.298;21.164;2022-09-17T12:04:34;16.30;1.00
18317;DHT22;9284;52.298;21.164;2022-09-17T12:07:13;16.10;1.00
18317;DHT22;9284;52.298;21.164;2022-09-17T12:09:45;16.40;1.00
18317;DHT22;9284;52.298;21.164;2022-09-17T12:12:17;16.40;1.00
18317;DHT22;9284;52.298;21.164;2022-09-17T12:15:14;16.20;1.00
18317;DHT22;9284;52.298;21.164;2022-09-17T12:17:48;15.90;1.00
18317;DHT22;9284;52.298;21.164;2022-09-17T12:20:41;15.60;1.00
18317;DHT22;9284;52.298;21.164;2022-09-17T12:23:14;15.50;1.00
18317;DHT22;9284;52.298;21.164;2022-09-17T12:25:51;15.30;99.90
18317;DHT22;9284;52.298;21.164;2022-09-17T12:28:26;14.90;1.00
18317;DHT22;9284;52.298;21.164;2022-09-17T12:31:05;14.60;1.00
18317;DHT22;9284;52.298;21.164;2022-09-17T12:33:37;14.40;1.00
18317;DHT22;9284;52.298;21.164;2022-09-17T12:36:19;14.40;96.60
18317;DHT22;9284;52.298;21.164;2022-09-17T12:39:04;14.30;1.00
18317;DHT22;9284;52.298;21.164;2022-09-17T12:41:45;14.20;99.90
18317;DHT22;9284;52.298;21.164;2022-09-17T12:50:36;14.30;99.90
18317;DHT22;9284;52.298;21.164;2022-09-17T12:53:22;14.40;99.90
18317;DHT22;9284;52.298;21.164;2022-09-17T12:56:04;14.40;99.90
18317;DHT22;9284;52.298;21.164;2022-09-17T12:58:51;14.50;99.90
18317;DHT22;9284;52.298;21.164;2022-09-17T13:01:28;14.60;99.90
18317;DHT22;9284;52.298;21.164;2022-09-17T13:04:10;14.60;1.00
18317;DHT22;9284;52.298;21.164;2022-09-17T13:07:29;14.60;1.00
18317;DHT22;9284;52.298;21.164;2022-09-17T13:10:12;14.70;99.90
18317;DHT22;9284;52.298;21.164;2022-09-17T13:12:48;14.70;93.80
18317;DHT22;9284;52.298;21.164;2022-09-17T13:15:40;14.60;15.80
18317;DHT22;9284;52.298;21.164;2022-09-17T13:18:16;14.70;99.90
18317;DHT22;9284;52.298;21.164;2022-09-17T13:20:59;14.60;99.90
18317;DHT22;9284;52.298;21.164;2022-09-17T13:23:33;14.40;1.00
18317;DHT22;9284;52.298;21.164;2022-09-17T13:26:03;14.20;99.90
18317;DHT22;9284;52.298;21.164;2022-09-17T13:28:40;14.20;1.00
18317;DHT22;9284;52.298;21.164;2022-09-17T13:31:46;14.20;1.00
18317;DHT22;9284;52.298;21.164;2022-09-17T13:34:30;14.10;99.90
18317;DHT22;9284;52.298;21.164;2022-09-17T13:37:00;14.00;57.70
18317;DHT22;9284;52.298;21.164;2022-09-17T13:39:39;14.10;99.90
18317;DHT22;9284;52.298;21.164;2022-09-17T13:42:13;14.30;1.00
18317;DHT22;9284;52.298;21.164;2022-09-17T13:44:46;14.20;99.90
18317;DHT22;9284;52.298;21.164;2022-09-17T13:47:27;14.20;99.90
18317;DHT22;9284;52.298;21.164;2022-09-17T13:49:59;14.20;1.00
18317;DHT22;9284;52.298;21.164;2022-09-17T13:52:33;14.40;1.00
18317;DHT22;9284;52.298;21.164;2022-09-17T13:55:06;14.30;99.90
18317;DHT22;9284;52.298;21.164;2022-09-17T13:57:48;14.30;99.90
18317;DHT22;9284;52.298;21.164;2022-09-17T14:00:46;14.20;1.00
18317;DHT22;9284;52.298;21.164;2022-09-17T14:03:52;14.20;99.90
18317;DHT22;9284;52.298;21.164;2022-09-17T14:06:47;14.20;1.00
18317;DHT22;9284;52.298;21.164;2022-09-17T14:09:34;14.10;99.90
18317;DHT22;9284;52.298;21.164;2022-09-17T14:15:34;14.00;1.00
18317;DHT22;9284;52.298;21.164;2022-09-17T14:18:35;14.00;50.70
18317;DHT22;9284;52.298;21.164;2022-09-17T14:21:08;13.90;99.90
18317;DHT22;9284;52.298;21.164;2022-09-17T14:23:42;13.90;1.00
18317;DHT22;9284;52.298;21.164;2022-09-17T14:26:23;13.90;1.00
18317;DHT22;9284;52.298;21.164;2022-09-17T14:28:59;13.90;99.90
18317;DHT22;9284;52.298;21.164;2022-09-17T14:31:33;13.80;99.90
18317;DHT22;9284;52.298;21.164;2022-09-17T14:34:04;13.80;99.90
18317;DHT22;9284;52.298;21.164;2022-09-17T14:36:36;13.80;99.90
18317;DHT22;9284;52.298;21.164;2022-09-17T14:39:09;13.80;1.00
18317;DHT22;9284;52.298;21.164;2022-09-17T14:41:42;13.70;1.00
18317;DHT22;9284;52.298;21.164;2022-09-17T14:44:13;13.80;99.90
18317;DHT22;9284;52.298;21.164;2022-09-17T14:46:47;13.90;99.90
18317;DHT22;9284;52.298;21.164;2022-09-17T14:49:20;14.10;78.90
18317;DHT22;9284;52.298;21.164;2022-09-17T14:51:50;14.00;14.10
18317;DHT22;9284;52.298;21.164;2022-09-17T14:54:24;14.00;99.90
18317;DHT22;9284;52.298;21.164;2022-09-17T14:56:56;14.20;1.00
18317;DHT22;9284;52.298;21.164;2022-09-17T14:59:36;14.10;1.00
18317;DHT22;9284;52.298;21.164;2022-09-17T15:02:36;14.10;99.90
18317;DHT22;9284;52.298;21.164;2022-09-17T15:05:19;14.10;1.00
18317;DHT22;9284;52.298;21.164;2022-09-17T15:07:48;14.20;45.90
18317;DHT22;9284;52.298;21.164;2022-09-17T15:10:18;14.10;99.90
18317;DHT22;9284;52.298;21.164;2022-09-17T15:12:49;14.10;99.90
18317;DHT22;9284;52.298;21.164;2022-09-17T15:15:19;14.00;1.00
18317;DHT22;9284;52.298;21.164;2022-09-17T15:17:49;14.00;99.90
18317;DHT22;9284;52.298;21.164;2022-09-17T15:20:20;14.00;1.00
18317;DHT22;9284;52.298;21.164;2022-09-17T15:22:54;14.00;99.90
18317;DHT22;9284;52.298;21.164;2022-09-17T15:25:28;14.00;1.00
18317;DHT22;9284;52.298;21.164;2022-09-17T15:28:02;14.00;1.00
18317;DHT22;9284;52.298;21.164;2022-09-17T15:30:32;14.10;1.00
18317;DHT22;9284;52.298;21.164;2022-09-17T15:33:00;14.20;99.90
18317;DHT22;9284;52.298;21.164;2022-09-17T15:35:30;14.30;99.90
18317;DHT22;9284;52.298;21.164;2022-09-17T15:38:00;14.30;1.00
18317;DHT22;9284;52.298;21.164;2022-09-17T15:40:48;14.20;1.00
18317;DHT22;9284;52.298;21.164;2022-09-17T15:43:23;14.10;8.00
18317;DHT22;9284;52.298;21.164;2022-09-17T15:45:52;14.00;99.90
18317;DHT22;9284;52.298;21.164;2022-09-17T15:48:33;13.90;1.00
18317;DHT22;9284;52.298;21.164;2022-09-17T15:51:03;13.80;1.00
18317;DHT22;9284;52.298;21.164;2022-09-17T15:53:33;13.80;99.90
18317;DHT22;9284;52.298;21.164;2022-09-17T15:56:05;13.70;99.90
18317;DHT22;9284;52.298;21.164;2022-09-17T15:58:53;13.60;1.00
18317;DHT22;9284;52.298;21.164;2022-09-17T16:01:49;13.50;99.90
18317;DHT22;9284;52.298;21.164;2022-09-17T16:04:26;13.30;99.90
18317;DHT22;9284;52.298;21.164;2022-09-17T16:07:00;13.30;1.00
18317;DHT22;9284;52.298;21.164;2022-09-17T16:09:45;13.20;1.00
18317;DHT22;9284;52.298;21.164;2022-09-17T16:12:17;13.10;99.90
18317;DHT22;9284;52.298;21.164;2022-09-17T16:14:49;13.10;1.00
18317;DHT22;9284;52.298;21.164;2022-09-17T16:17:26;13.00;1.00
18317;DHT22;9284;52.298;21.164;2022-09-17T16:19:55;13.10;1.00
18317;DHT22;9284;52.298;21.164;2022-09-17T16:22:31;13.00;1.00
18317;DHT22;9284;52.298;21.164;2022-09-17T16:24:59;13.00;16.20
18317;DHT22;9284;52.298;21.164;2022-09-17T16:27:31;12.90;99.90
18317;DHT22;9284;52.298;21.164;2022-09-17T16:30:04;12.90;99.90
18317;DHT22;9284;52.298;21.164;2022-09-17T16:32:32;12.80;99.90
18317;DHT22;9284;52.298;21.164;2022-09-17T16:35:00;12.70;1.00
18317;DHT22;9284;52.298;21.164;2022-09-17T16:37:28;12.70;1.00
18317;DHT22;9284;52.298;21.164;2022-09-17T16:39:56;12.60;1.00
18317;DHT22;9284;52.298;21.164;2022-09-17T16:42:29;12.50;37.20
18317;DHT22;9284;52.298;21.164;2022-09-17T16:44:57;12.30;99.90
18317;DHT22;9284;52.298;21.164;2022-09-17T16:47:28;12.20;99.90
18317;DHT22;9284;52.298;21.164;2022-09-17T16:49:57;12.10;99.90
18317;DHT22;9284;52.298;21.164;2022-09-17T16:52:25;12.00;99.90
18317;DHT22;9284;52.298;21.164;2022-09-17T16:54:53;11.90;1.00
18317;DHT22;9284;52.298;21.164;2022-09-17T16:57:21;11.70;1.00
18317;DHT22;9284;52.298;21.164;2022-09-17T16:59:49;11.60;1.00
18317;DHT22;9284;52.298;21.164;2022-09-17T17:02:17;11.50;1.00
18317;DHT22;9284;52.298;21.164;2022-09-17T17:04:47;11.30;1.00
18317;DHT22;9284;52.298;21.164;2022-09-17T17:07:15;11.40;92.40
18317;DHT22;9284;52.298;21.164;2022-09-17T17:09:43;11.00;99.90
18317;DHT22;9284;52.298;21.164;2022-09-17T17:12:11;10.90;99.90
18317;DHT22;9284;52.298;21.164;2022-09-17T17:14:40;10.80;99.90
18317;DHT22;9284;52.298;21.164;2022-09-17T17:17:08;10.70;99.90
18317;DHT22;9284;52.298;21.164;2022-09-17T17:19:36;10.60;99.90
18317;DHT22;9284;52.298;21.164;2022-09-17T17:22:06;10.50;1.00
18317;DHT22;9284;52.298;21.164;2022-09-17T17:24:35;10.30;1.00
18317;DHT22;9284;52.298;21.164;2022-09-17T17:27:03;10.30;1.00
18317;DHT22;9284;52.298;21.164;2022-09-17T17:29:31;10.20;1.00
18317;DHT22;9284;52.298;21.164;2022-09-17T17:32:00;10.10;1.00
18317;DHT22;9284;52.298;21.164;2022-09-17T17:34:30;10.10;1.00
18317;DHT22;9284;52.298;21.164;2022-09-17T17:36:58;10.00;1.00
18317;DHT22;9284;52.298;21.164;2022-09-17T17:39:27;10.00;1.00
18317;DHT22;9284;52.298;21.164;2022-09-17T17:41:56;9.90;1.00
18317;DHT22;9284;52.298;21.164;2022-09-17T17:44:25;9.80;1.00
18317;DHT22;9284;52.298;21.164;2022-09-17T17:46:53;9.80;1.00
18317;DHT22;9284;52.298;21.164;2022-09-17T17:49:21;9.70;1.00
18317;DHT22;9284;52.298;21.164;2022-09-17T17:51:50;9.70;1.00
18317;DHT22;9284;52.298;21.164;2022-09-17T17:54:19;9.70;1.00
18317;DHT22;9284;52.298;21.164;2022-09-17T17:56:49;9.60;1.00
18317;DHT22;9284;52.298;21.164;2022-09-17T17:59:17;9.50;1.00
18317;DHT22;9284;52.298;21.164;2022-09-17T18:01:45;9.40;28.50
18317;DHT22;9284;52.298;21.164;2022-09-17T18:04:13;9.40;64.90
18317;DHT22;9284;52.298;21.164;2022-09-17T18:06:41;9.30;99.90
18317;DHT22;9284;52.298;21.164;2022-09-17T18:09:10;9.30;99.90
18317;DHT22;9284;52.298;21.164;2022-09-17T18:11:38;9.20;99.90
18317;DHT22;9284;52.298;21.164;2022-09-17T18:14:11;9.20;99.90
18317;DHT22;9284;52.298;21.164;2022-09-17T18:16:40;9.10;99.90
18317;DHT22;9284;52.298;21.164;2022-09-17T18:19:09;9.10;99.90
18317;DHT22;9284;52.298;21.164;2022-09-17T18:21:37;9.10;99.90
18317;DHT22;9284;52.298;21.164;2022-09-17T18:24:06;9.00;99.90
18317;DHT22;9284;52.298;21.164;2022-09-17T18:26:34;9.10;99.90
18317;DHT22;9284;52.298;21.164;2022-09-17T18:29:02;9.00;99.90
18317;DHT22;9284;52.298;21.164;2022-09-17T18:31:35;8.90;99.90
18317;DHT22;9284;52.298;21.164;2022-09-17T18:34:06;8.90;99.90
18317;DHT22;9284;52.298;21.164;2022-09-17T18:36:35;8.90;99.90
18317;DHT22;9284;52.298;21.164;2022-09-17T18:39:06;8.90;99.90
18317;DHT22;9284;52.298;21.164;2022-09-17T18:41:55;8.90;99.90
18317;DHT22;9284;52.298;21.164;2022-09-17T18:44:23;8.90;99.90
18317;DHT22;9284;52.298;21.164;2022-09-17T18:46:53;8.90;99.90
18317;DHT22;9284;52.298;21.164;2022-09-17T18:49:21;8.80;99.90
18317;DHT22;9284;52.298;21.164;2022-09-17T18:51:49;8.80;99.90
18317;DHT22;9284;52.298;21.164;2022-09-17T18:54:18;8.70;99.90
18317;DHT22;9284;52.298;21.164;2022-09-17T18:56:47;8.70;99.90
18317;DHT22;9284;52.298;21.164;2022-09-17T18:59:16;8.70;99.90
18317;DHT22;9284;52.298;21.164;2022-09-17T19:01:44;8.70;99.90
18317;DHT22;9284;52.298;21.164;2022-09-17T19:04:15;8.60;99.90
18317;DHT22;9284;52.298;21.164;2022-09-17T19:06:44;8.60;99.90
18317;DHT22;9284;52.298;21.164;2022-09-17T19:09:13;8.60;99.90
18317;DHT22;9284;52.298;21.164;2022-09-17T19:11:41;8.60;99.90
18317;DHT22;9284;52.298;21.164;2022-09-17T19:14:09;8.60;99.90
18317;DHT22;9284;52.298;21.164;2022-09-17T19:16:38;8.60;99.90
18317;DHT22;9284;52.298;21.164;2022-09-17T19:19:06;8.50;99.90
18317;DHT22;9284;52.298;21.164;2022-09-17T19:21:36;8.40;99.90
18317;DHT22;9284;52.298;21.164;2022-09-17T19:24:05;8.50;99.90
18317;DHT22;9284;52.298;21.164;2022-09-17T19:26:33;8.40;99.90
18317;DHT22;9284;52.298;21.164;2022-09-17T19:29:01;8.30;99.90
18317;DHT22;9284;52.298;21.164;2022-09-17T19:31:30;8.40;99.90
18317;DHT22;9284;52.298;21.164;2022-09-17T19:33:59;8.30;99.90
18317;DHT22;9284;52.298;21.164;2022-09-17T19:36:28;8.30;99.90
18317;DHT22;9284;52.298;21.164;2022-09-17T19:38:57;8.30;99.90
18317;DHT22;9284;52.298;21.164;2022-09-17T19:41:26;8.30;99.90
18317;DHT22;9284;52.298;21.164;2022-09-17T19:43:54;8.30;99.90
18317;DHT22;9284;52.298;21.164;2022-09-17T19:46:24;8.30;99.90
18317;DHT22;9284;52.298;21.164;2022-09-17T19:48:55;8.30;99.90
18317;DHT22;9284;52.298;21.164;2022-09-17T19:51:25;8.20;99.90
18317;DHT22;9284;52.298;21.164;2022-09-17T19:53:54;8.30;99.90